createdAt,value
2023-11-05T00:02:22.862Z,9.80
2023-11-05T00:04:50.589Z,9.80
2023-11-05T00:07:18.780Z,9.86
2023-11-05T00:09:46.296Z,9.84
2023-11-05T00:12:13.807Z,9.87
2023-11-05T00:14:42.104Z,9.87
2023-11-05T00:17:10.486Z,9.82
2023-11-05T00:19:38.117Z,9.84
2023-11-05T00:22:06.461Z,9.88
2023-11-05T00:24:36.578Z,9.90
2023-11-05T00:27:07.745Z,9.90
2023-11-05T00:29:36.007Z,9.95
2023-11-05T00:32:04.101Z,9.90
2023-11-05T00:34:31.727Z,9.93
2023-11-05T00:36:59.840Z,9.89
2023-11-05T00:39:27.277Z,9.97
2023-11-05T00:41:54.740Z,9.95
2023-11-05T00:44:22.221Z,9.90
2023-11-05T00:46:49.912Z,9.74
2023-11-05T00:49:17.799Z,9.78
2023-11-05T00:51:46.937Z,9.65
2023-11-05T00:54:22.657Z,9.81
2023-11-05T00:56:50.454Z,9.74
2023-11-05T00:59:17.911Z,9.78
2023-11-05T01:01:45.427Z,9.79
2023-11-05T01:04:14.640Z,9.86
2023-11-05T01:06:43.126Z,9.77
2023-11-05T01:09:11.510Z,9.79
2023-11-05T01:11:42.190Z,9.78
2023-11-05T01:14:09.669Z,9.76
2023-11-05T01:16:38.191Z,10.13
2023-11-05T01:19:06.146Z,9.91
2023-11-05T01:21:33.551Z,9.80
2023-11-05T01:24:00.985Z,9.74
2023-11-05T01:26:28.424Z,9.55
2023-11-05T01:28:55.899Z,9.69
2023-11-05T01:31:24.404Z,9.64
2023-11-05T01:33:51.881Z,9.62
2023-11-05T01:36:19.345Z,9.83
2023-11-05T01:38:46.674Z,10.45
2023-11-05T01:41:14.171Z,10.26
2023-11-05T01:43:41.694Z,10.27
2023-11-05T01:46:09.217Z,10.26
2023-11-05T01:48:36.884Z,10.27
2023-11-05T01:51:13.089Z,10.24
2023-11-05T01:53:42.314Z,10.28
2023-11-05T01:56:10.243Z,10.10
2023-11-05T01:58:39.842Z,10.16
2023-11-05T02:01:08.146Z,10.17
2023-11-05T02:03:35.507Z,10.23
2023-11-05T02:06:03.331Z,10.42
2023-11-05T02:08:31.550Z,10.22
2023-11-05T02:11:00.590Z,10.15
2023-11-05T02:13:28.020Z,10.16
2023-11-05T02:15:55.410Z,10.20
2023-11-05T02:18:23.106Z,10.21
2023-11-05T02:20:50.515Z,10.23
2023-11-05T02:23:18.893Z,9.93
2023-11-05T02:25:46.681Z,9.93
2023-11-05T02:28:14.124Z,10.09
2023-11-05T02:30:41.584Z,10.19
2023-11-05T02:33:08.985Z,10.22
2023-11-05T02:35:36.354Z,10.14
2023-11-05T02:38:04.474Z,10.06
2023-11-05T02:40:31.948Z,10.40
2023-11-05T02:42:59.630Z,10.09
2023-11-05T02:45:27.609Z,10.03
2023-11-05T02:47:55.473Z,10.18
2023-11-05T02:50:22.955Z,9.98
2023-11-05T02:52:50.286Z,9.98
2023-11-05T02:55:17.839Z,9.91
2023-11-05T02:57:45.468Z,9.98
2023-11-05T03:00:15.043Z,10.01
2023-11-05T03:02:42.854Z,9.90
2023-11-05T03:05:10.446Z,9.94
2023-11-05T03:07:38.606Z,9.87
2023-11-05T03:10:07.243Z,9.93
2023-11-05T03:12:36.285Z,10.01
2023-11-05T03:15:04.416Z,9.96
2023-11-05T03:17:32.233Z,10.03
2023-11-05T03:20:00.501Z,9.99
2023-11-05T03:22:29.402Z,9.76
2023-11-05T03:24:56.719Z,9.87
2023-11-05T03:27:25.098Z,9.94
2023-11-05T03:29:52.458Z,9.76
2023-11-05T03:32:19.792Z,9.65
2023-11-05T03:34:47.306Z,9.66
2023-11-05T03:37:14.814Z,9.60
2023-11-05T03:39:45.048Z,9.65
2023-11-05T03:42:12.923Z,9.52
2023-11-05T03:44:41.431Z,9.51
2023-11-05T03:47:09.000Z,9.59
2023-11-05T03:49:36.624Z,9.50
2023-11-05T03:52:04.766Z,9.59
2023-11-05T03:54:32.601Z,9.39
2023-11-05T03:57:00.993Z,9.35
2023-11-05T03:59:29.568Z,9.16
2023-11-05T04:01:58.021Z,9.19
2023-11-05T04:04:25.539Z,9.14
2023-11-05T04:06:53.468Z,9.13
2023-11-05T04:09:20.788Z,9.06
2023-11-05T04:11:48.259Z,9.16
2023-11-05T04:14:17.489Z,9.02
2023-11-05T04:16:44.866Z,9.13
2023-11-05T04:19:14.326Z,9.17
2023-11-05T04:21:42.586Z,9.13
2023-11-05T04:24:10.407Z,9.11
2023-11-05T04:26:38.276Z,9.03
2023-11-05T04:29:06.125Z,8.93
2023-11-05T04:31:34.476Z,8.83
2023-11-05T04:34:02.710Z,8.82
2023-11-05T04:36:30.583Z,8.85
2023-11-05T04:38:58.077Z,8.88
2023-11-05T04:41:25.393Z,8.79
2023-11-05T04:43:53.598Z,8.82
2023-11-05T04:46:21.568Z,8.58
2023-11-05T04:48:49.574Z,8.44
2023-11-05T04:51:17.504Z,8.37
2023-11-05T04:53:45.691Z,8.28
2023-11-05T04:56:17.431Z,8.17
2023-11-05T04:58:45.388Z,8.10
2023-11-05T05:01:12.976Z,7.99
2023-11-05T05:03:41.364Z,7.96
2023-11-05T05:06:09.422Z,7.93
2023-11-05T05:08:37.081Z,7.93
2023-11-05T05:11:05.678Z,7.83
2023-11-05T05:13:33.980Z,7.91
2023-11-05T05:16:04.454Z,7.96
2023-11-05T05:18:32.194Z,7.93
2023-11-05T05:21:00.423Z,7.99
2023-11-05T05:23:29.638Z,7.94
2023-11-05T05:25:57.631Z,7.93
2023-11-05T05:28:24.992Z,7.92
2023-11-05T05:30:52.464Z,7.87
2023-11-05T05:33:20.257Z,7.86
2023-11-05T05:35:47.908Z,7.72
2023-11-05T05:38:16.769Z,7.71
2023-11-05T05:40:44.245Z,7.75
2023-11-05T05:43:11.690Z,7.74
2023-11-05T05:45:39.124Z,7.72
2023-11-05T05:48:07.664Z,7.70
2023-11-05T05:50:35.202Z,7.76
2023-11-05T05:53:02.520Z,7.78
2023-11-05T05:55:29.921Z,7.66
2023-11-05T05:57:57.556Z,7.62
2023-11-05T06:00:25.377Z,7.70
2023-11-05T06:02:52.818Z,7.73
2023-11-05T06:05:20.308Z,7.76
2023-11-05T06:07:48.002Z,7.73
2023-11-05T06:10:16.338Z,7.76
2023-11-05T06:12:43.773Z,7.81
2023-11-05T06:15:12.728Z,7.65
2023-11-05T06:17:42.607Z,7.72
2023-11-05T06:20:10.874Z,7.75
2023-11-05T06:22:39.584Z,7.81
2023-11-05T06:25:10.831Z,7.76
2023-11-05T06:27:39.356Z,7.80
2023-11-05T06:30:07.727Z,7.78
2023-11-05T06:32:35.420Z,7.82
2023-11-05T06:35:03.500Z,7.89
2023-11-05T06:37:32.113Z,7.84
2023-11-05T06:40:00.880Z,7.76
2023-11-05T06:42:28.545Z,7.87
2023-11-05T06:44:55.940Z,7.82
2023-11-05T06:47:23.290Z,7.79
2023-11-05T06:49:50.879Z,7.78
2023-11-05T06:52:18.280Z,7.88
2023-11-05T06:54:45.804Z,7.90
2023-11-05T06:57:13.154Z,7.89
2023-11-05T06:59:40.705Z,8.03
2023-11-05T07:02:11.574Z,8.08
2023-11-05T07:04:39.276Z,8.11
2023-11-05T07:07:06.935Z,8.24
2023-11-05T07:09:34.699Z,8.29
2023-11-05T07:12:02.066Z,8.28
2023-11-05T07:14:29.410Z,8.37
2023-11-05T07:16:57.040Z,8.35
2023-11-05T07:19:24.580Z,8.28
2023-11-05T07:24:39.863Z,8.38
2023-11-05T07:27:07.274Z,8.40
2023-11-05T07:29:34.630Z,8.44
2023-11-05T07:32:02.030Z,8.44
2023-11-05T07:34:29.754Z,8.38
2023-11-05T07:36:58.239Z,8.56
2023-11-05T07:39:25.738Z,8.56
2023-11-05T07:41:53.119Z,8.63
2023-11-05T07:44:22.387Z,8.81
2023-11-05T07:46:52.492Z,8.89
2023-11-05T07:49:20.229Z,8.90
2023-11-05T07:51:48.074Z,9.05
2023-11-05T07:54:15.624Z,9.09
2023-11-05T07:57:08.240Z,9.17
2023-11-05T07:59:35.788Z,9.20
2023-11-05T08:02:03.383Z,9.44
2023-11-05T08:04:30.926Z,9.61
2023-11-05T08:06:58.470Z,9.70
2023-11-05T08:09:26.095Z,9.92
2023-11-05T08:11:54.465Z,10.11
2023-11-05T08:14:22.036Z,10.09
2023-11-05T08:16:51.580Z,10.20
2023-11-05T08:19:19.304Z,10.49
2023-11-05T08:21:46.818Z,10.48
2023-11-05T08:24:14.187Z,10.73
2023-11-05T08:26:41.682Z,10.50
2023-11-05T08:29:09.156Z,10.73
2023-11-05T08:31:37.178Z,10.68
2023-11-05T08:34:04.728Z,10.87
2023-11-05T08:36:32.278Z,11.02
2023-11-05T08:39:00.982Z,11.06
2023-11-05T08:41:28.262Z,11.30
2023-11-05T08:43:55.773Z,11.25
2023-11-05T08:46:23.694Z,11.12
2023-11-05T08:48:51.957Z,11.19
2023-11-05T08:51:29.671Z,11.07
2023-11-05T08:53:57.582Z,11.16
2023-11-05T08:56:25.627Z,11.30
2023-11-05T08:58:55.067Z,11.37
2023-11-05T09:01:22.679Z,11.63
2023-11-05T09:03:50.195Z,11.94
2023-11-05T09:06:19.268Z,12.20
2023-11-05T09:08:46.940Z,12.50
2023-11-05T09:11:17.724Z,12.60
2023-11-05T09:13:46.420Z,11.88
2023-11-05T09:16:14.130Z,11.70
2023-11-05T09:18:41.604Z,11.99
2023-11-05T09:21:10.672Z,12.05
2023-11-05T09:23:38.164Z,12.12
2023-11-05T09:26:05.541Z,12.30
2023-11-05T09:28:33.002Z,12.48
2023-11-05T09:31:01.032Z,12.57
2023-11-05T09:33:28.465Z,12.75
2023-11-05T09:35:55.942Z,12.64
2023-11-05T09:38:23.791Z,12.76
2023-11-05T09:40:51.441Z,12.62
2023-11-05T09:43:21.386Z,13.14
2023-11-05T09:45:50.260Z,13.27
2023-11-05T09:48:18.367Z,13.05
2023-11-05T09:50:45.989Z,13.20
2023-11-05T09:53:15.875Z,13.09
2023-11-05T09:55:45.990Z,12.97
2023-11-05T09:58:17.680Z,13.01
2023-11-05T10:00:45.567Z,13.02
2023-11-05T10:03:13.959Z,13.07
2023-11-05T10:05:43.840Z,13.21
2023-11-05T10:08:12.736Z,13.44
2023-11-05T10:10:45.151Z,13.61
2023-11-05T10:13:14.135Z,13.66
2023-11-05T10:15:42.873Z,14.03
2023-11-05T10:18:16.132Z,14.01
2023-11-05T10:20:51.891Z,14.03
2023-11-05T10:23:19.842Z,14.04
2023-11-05T10:25:48.568Z,14.22
2023-11-05T10:28:15.951Z,14.24
2023-11-05T10:30:46.739Z,14.27
2023-11-05T10:33:15.224Z,14.39
2023-11-05T10:35:42.780Z,14.25
2023-11-05T10:38:10.306Z,14.21
2023-11-05T10:40:40.924Z,14.08
2023-11-05T10:43:10.566Z,13.99
2023-11-05T10:45:39.288Z,14.06
2023-11-05T10:48:07.767Z,14.25
2023-11-05T10:50:35.733Z,14.10
2023-11-05T10:53:06.822Z,14.27
2023-11-05T10:55:40.321Z,14.30
2023-11-05T11:00:45.740Z,14.31
2023-11-05T11:03:16.810Z,14.26
2023-11-05T11:05:48.510Z,14.48
2023-11-05T11:08:22.290Z,14.53
2023-11-05T11:10:51.111Z,14.43
2023-11-05T11:13:40.975Z,14.66
2023-11-05T11:16:21.387Z,14.73
2023-11-05T11:18:51.189Z,14.85
2023-11-05T11:21:19.138Z,14.99
2023-11-05T11:23:47.101Z,15.05
2023-11-05T11:26:22.472Z,15.05
2023-11-05T11:29:03.553Z,15.05
2023-11-05T11:31:33.468Z,15.00
2023-11-05T11:34:00.936Z,15.16
2023-11-05T11:36:28.353Z,15.24
2023-11-05T11:38:55.649Z,15.28
2023-11-05T11:41:23.642Z,15.32
2023-11-05T11:43:51.831Z,15.40
2023-11-05T11:46:25.435Z,15.33
2023-11-05T11:48:53.452Z,15.26
2023-11-05T11:51:21.129Z,15.46
2023-11-05T11:53:48.756Z,15.50
2023-11-05T11:56:16.186Z,15.62
2023-11-05T11:58:44.725Z,15.56
2023-11-05T12:01:15.082Z,15.54
2023-11-05T12:03:44.394Z,15.44
2023-11-05T12:06:12.884Z,15.31
2023-11-05T12:08:46.257Z,15.38
2023-11-05T12:11:17.440Z,15.49
2023-11-05T12:13:47.522Z,15.58
2023-11-05T12:16:19.103Z,15.68
2023-11-05T12:18:47.864Z,15.77
2023-11-05T12:21:16.150Z,15.69
2023-11-05T12:23:44.746Z,15.67
2023-11-05T12:26:13.637Z,15.74
2023-11-05T12:28:41.395Z,15.76
2023-11-05T12:31:09.232Z,15.71
2023-11-05T12:33:39.053Z,15.78
2023-11-05T12:36:08.473Z,15.88
2023-11-05T12:38:36.509Z,15.84
2023-11-05T12:41:05.988Z,16.14
2023-11-05T12:43:33.701Z,16.13
2023-11-05T12:46:01.404Z,16.05
2023-11-05T12:48:32.533Z,16.00
2023-11-05T12:51:02.764Z,15.99
2023-11-05T12:53:33.050Z,15.95
2023-11-05T12:56:12.473Z,16.00
2023-11-05T12:58:41.777Z,15.95
2023-11-05T13:01:12.580Z,16.02
2023-11-05T13:03:41.251Z,16.00
2023-11-05T13:06:10.152Z,15.96
2023-11-05T13:08:39.246Z,16.18
2023-11-05T13:11:07.529Z,16.16
2023-11-05T13:13:36.154Z,16.15
2023-11-05T13:16:05.338Z,15.99
2023-11-05T13:18:33.439Z,16.04
2023-11-05T13:21:01.453Z,16.06
2023-11-05T13:23:29.661Z,16.10
2023-11-05T13:25:57.237Z,16.09
2023-11-05T13:28:24.755Z,16.17
2023-11-05T13:30:52.061Z,16.12
2023-11-05T13:33:19.546Z,16.08
2023-11-05T13:35:48.612Z,16.09
2023-11-05T13:38:16.384Z,16.24
2023-11-05T13:40:43.914Z,16.08
2023-11-05T13:43:11.629Z,16.18
2023-11-05T13:45:39.343Z,16.19
2023-11-05T13:48:06.843Z,16.35
2023-11-05T13:50:34.561Z,16.27
2023-11-05T13:53:03.031Z,16.36
2023-11-05T13:55:30.674Z,16.32
2023-11-05T13:57:59.548Z,16.18
2023-11-05T14:00:28.612Z,16.12
2023-11-05T14:02:56.014Z,16.05
2023-11-05T14:05:23.690Z,16.14
2023-11-05T14:07:51.948Z,16.22
2023-11-05T14:10:22.330Z,16.15
2023-11-05T14:12:50.338Z,16.24
2023-11-05T14:15:20.329Z,16.09
2023-11-05T14:17:47.874Z,16.16
2023-11-05T14:20:15.558Z,16.01
2023-11-05T14:22:43.337Z,15.95
2023-11-05T14:25:11.106Z,16.10
2023-11-05T14:27:38.840Z,15.82
2023-11-05T14:30:07.131Z,15.82
2023-11-05T14:32:36.070Z,15.95
2023-11-05T14:35:10.269Z,16.00
2023-11-05T14:37:38.014Z,15.92
2023-11-05T14:40:10.403Z,15.84
2023-11-05T14:42:38.338Z,15.77
2023-11-05T14:45:19.484Z,15.84
2023-11-05T14:47:53.150Z,15.93
2023-11-05T14:50:20.679Z,15.81
2023-11-05T14:52:48.131Z,15.81
2023-11-05T14:55:16.453Z,15.93
2023-11-05T14:57:44.792Z,15.85
2023-11-05T15:00:13.551Z,15.66
2023-11-05T15:02:42.070Z,15.74
2023-11-05T15:05:12.832Z,15.60
2023-11-05T15:07:41.758Z,15.48
2023-11-05T15:10:10.131Z,15.44
2023-11-05T15:12:38.458Z,15.39
2023-11-05T15:15:10.293Z,15.14
2023-11-05T15:17:39.211Z,15.22
2023-11-05T15:20:11.481Z,14.96
2023-11-05T15:22:41.181Z,15.00
2023-11-05T15:25:09.538Z,14.97
2023-11-05T15:27:38.052Z,14.90
2023-11-05T15:30:09.706Z,14.92
2023-11-05T15:32:42.955Z,14.58
2023-11-05T15:35:11.051Z,14.73
2023-11-05T15:37:39.702Z,14.58
2023-11-05T15:40:08.660Z,14.31
2023-11-05T15:42:41.667Z,14.21
2023-11-05T15:45:10.430Z,14.26
2023-11-05T15:47:37.854Z,14.23
2023-11-05T15:50:05.875Z,14.31
2023-11-05T15:52:34.682Z,14.18
2023-11-05T15:55:02.717Z,14.06
2023-11-05T15:57:30.089Z,14.03
2023-11-05T15:59:57.560Z,13.93
2023-11-05T16:02:25.250Z,13.79
2023-11-05T16:04:53.187Z,13.38
2023-11-05T16:07:21.680Z,13.55
2023-11-05T16:09:49.251Z,13.41
2023-11-05T16:12:17.018Z,13.50
2023-11-05T16:14:44.417Z,13.12
2023-11-05T16:17:13.280Z,12.98
2023-11-05T16:19:40.685Z,13.02
2023-11-05T16:22:08.172Z,12.75
2023-11-05T16:24:37.060Z,12.59
2023-11-05T16:27:06.050Z,12.36
2023-11-05T16:29:34.144Z,12.26
2023-11-05T16:32:02.112Z,12.21
2023-11-05T16:34:30.522Z,12.28
2023-11-05T16:36:58.049Z,12.31
2023-11-05T16:39:25.300Z,12.18
2023-11-05T16:41:53.041Z,12.26
2023-11-05T16:44:23.118Z,12.23
2023-11-05T16:46:51.549Z,12.14
2023-11-05T16:49:19.461Z,12.28
2023-11-05T16:51:46.803Z,12.48
2023-11-05T16:54:15.185Z,12.49
2023-11-05T16:56:51.118Z,12.53
2023-11-05T16:59:20.523Z,12.44
2023-11-05T17:01:49.953Z,12.38
2023-11-05T17:04:20.054Z,12.30
2023-11-05T17:06:48.466Z,12.15
2023-11-05T17:09:15.927Z,12.32
2023-11-05T17:11:44.677Z,12.48
2023-11-05T17:14:13.466Z,12.48
2023-11-05T17:16:45.232Z,12.34
2023-11-05T17:19:14.943Z,12.25
2023-11-05T17:21:44.310Z,12.37
2023-11-05T17:24:14.192Z,12.34
2023-11-05T17:26:42.350Z,12.32
2023-11-05T17:29:09.727Z,12.38
2023-11-05T17:31:37.281Z,12.27
2023-11-05T17:34:04.743Z,12.44
2023-11-05T17:36:32.599Z,12.23
2023-11-05T17:39:01.901Z,12.05
2023-11-05T17:41:30.038Z,12.04
2023-11-05T17:43:57.687Z,12.15
2023-11-05T17:46:25.645Z,12.06
2023-11-05T17:48:54.808Z,12.20
2023-11-05T17:51:22.239Z,12.11
2023-11-05T17:53:49.671Z,11.91
2023-11-05T17:56:17.867Z,11.91
2023-11-05T17:58:45.450Z,11.88
2023-11-05T18:01:18.946Z,11.81
2023-11-05T18:03:48.092Z,11.70
2023-11-05T18:06:15.583Z,11.50
2023-11-05T18:08:43.622Z,11.46
2023-11-05T18:11:12.803Z,11.07
2023-11-05T18:13:41.131Z,11.02
2023-11-05T18:16:10.154Z,11.22
2023-11-05T18:18:38.919Z,11.15
2023-11-05T18:21:08.926Z,11.17
2023-11-05T18:23:36.707Z,11.00
2023-11-05T18:26:05.269Z,10.83
2023-11-05T18:28:32.820Z,10.84
2023-11-05T18:31:00.306Z,10.98
2023-11-05T18:33:28.490Z,10.93
2023-11-05T18:35:57.067Z,10.97
2023-11-05T18:38:25.009Z,10.93
2023-11-05T18:40:53.553Z,10.82
2023-11-05T18:43:21.664Z,10.84
2023-11-05T18:45:49.211Z,10.95
2023-11-05T18:48:16.729Z,11.26
2023-11-05T18:50:45.741Z,11.36
2023-11-05T18:53:18.557Z,11.60
2023-11-05T18:55:49.000Z,11.67
2023-11-05T18:58:16.662Z,11.61
2023-11-05T19:00:43.991Z,11.71
2023-11-05T19:03:12.326Z,11.87
2023-11-05T19:05:40.023Z,11.97
2023-11-05T19:08:07.966Z,12.05
2023-11-05T19:10:36.870Z,12.10
2023-11-05T19:13:04.878Z,12.04
2023-11-05T19:15:32.245Z,12.13
2023-11-05T19:18:00.839Z,12.12
2023-11-05T19:20:30.447Z,12.11
2023-11-05T19:22:59.810Z,11.94
2023-11-05T19:25:28.321Z,11.91
2023-11-05T19:27:55.719Z,11.75
2023-11-05T19:30:23.101Z,11.91
2023-11-05T19:32:52.186Z,11.94
2023-11-05T19:35:20.011Z,11.99
2023-11-05T19:37:47.751Z,11.80
2023-11-05T19:40:15.968Z,11.65
2023-11-05T19:42:43.482Z,11.64
2023-11-05T19:45:11.723Z,11.54
2023-11-05T19:47:40.540Z,11.77
2023-11-05T19:50:14.257Z,11.66
2023-11-05T19:52:43.575Z,11.70
2023-11-05T19:55:12.426Z,11.73
2023-11-05T19:57:39.848Z,11.72
2023-11-05T20:00:09.556Z,11.80
2023-11-05T20:02:43.377Z,11.84
2023-11-05T20:05:14.373Z,11.99
2023-11-05T20:07:42.051Z,12.03
2023-11-05T20:10:09.789Z,12.03
2023-11-05T20:12:37.594Z,12.09
2023-11-05T20:15:06.176Z,12.12
2023-11-05T20:17:37.142Z,12.15
2023-11-05T20:20:05.256Z,12.06
2023-11-05T20:22:32.614Z,11.98
2023-11-05T20:25:00.077Z,11.91
2023-11-05T20:27:27.819Z,11.95
2023-11-05T20:29:55.247Z,11.98
2023-11-05T20:32:22.988Z,11.91
2023-11-05T20:34:51.080Z,11.87
2023-11-05T20:37:18.596Z,11.75
2023-11-05T20:39:46.083Z,11.82
2023-11-05T20:42:13.449Z,11.80
2023-11-05T20:44:42.600Z,11.88
2023-11-05T20:47:13.161Z,11.83
2023-11-05T20:49:42.676Z,11.62
2023-11-05T20:52:10.556Z,11.75
2023-11-05T20:54:38.127Z,11.72
2023-11-05T20:57:07.566Z,11.73
2023-11-05T20:59:35.131Z,11.86
2023-11-05T21:02:02.593Z,11.78
2023-11-05T21:04:30.845Z,11.97
2023-11-05T21:06:58.865Z,11.90
2023-11-05T21:09:27.919Z,11.81
2023-11-05T21:11:55.453Z,11.73
2023-11-05T21:14:22.891Z,11.61
2023-11-05T21:16:50.361Z,11.64
2023-11-05T21:19:18.849Z,11.59
2023-11-05T21:21:46.375Z,11.52
2023-11-05T21:24:13.998Z,11.48
2023-11-05T21:27:13.380Z,11.62
2023-11-05T21:29:41.907Z,11.52
2023-11-05T21:32:10.931Z,11.61
2023-11-05T21:34:39.240Z,11.57
2023-11-05T21:37:11.131Z,11.37
2023-11-05T21:39:39.664Z,11.30
2023-11-05T21:42:07.503Z,11.34
2023-11-05T21:44:35.885Z,11.43
2023-11-05T21:47:09.890Z,11.15
2023-11-05T21:49:37.722Z,11.18
2023-11-05T21:52:05.296Z,11.22
2023-11-05T21:54:33.766Z,10.85
2023-11-05T21:57:01.168Z,10.71
2023-11-05T21:59:29.296Z,10.57
2023-11-05T22:01:57.325Z,10.49
2023-11-05T22:04:25.050Z,10.20
2023-11-05T22:06:53.353Z,10.00
2023-11-05T22:09:21.188Z,10.11
2023-11-05T22:11:49.153Z,10.28
2023-11-05T22:14:16.833Z,9.98
2023-11-05T22:16:44.457Z,9.65
2023-11-05T22:19:15.773Z,10.12
2023-11-05T22:21:43.890Z,10.14
2023-11-05T22:24:16.299Z,9.88
2023-11-05T22:26:45.488Z,9.54
2023-11-05T22:29:14.556Z,9.63
2023-11-05T22:31:42.177Z,9.42
2023-11-05T22:34:09.941Z,9.95
2023-11-05T22:36:37.416Z,9.56
2023-11-05T22:39:04.992Z,9.86
2023-11-05T22:41:35.109Z,9.40
2023-11-05T22:44:02.615Z,9.39
2023-11-05T22:46:30.943Z,9.45
2023-11-05T22:48:58.408Z,9.37
2023-11-05T22:51:26.485Z,9.34
2023-11-05T22:53:53.856Z,9.12
2023-11-05T22:56:21.225Z,9.06
2023-11-05T22:58:48.722Z,8.94
2023-11-05T23:01:16.715Z,9.07
2023-11-05T23:03:44.241Z,8.75
2023-11-05T23:06:13.317Z,8.91
2023-11-05T23:08:40.844Z,8.76
2023-11-05T23:11:08.498Z,8.86
2023-11-05T23:13:36.131Z,8.59
2023-11-05T23:16:04.120Z,8.60
2023-11-05T23:18:31.970Z,8.48
2023-11-05T23:21:00.806Z,8.66
2023-11-05T23:23:28.757Z,8.74
2023-11-05T23:25:56.475Z,9.05
2023-11-05T23:28:25.305Z,8.90
2023-11-05T23:30:54.477Z,8.83
2023-11-05T23:33:22.025Z,8.74
2023-11-05T23:35:49.440Z,8.52
2023-11-05T23:38:17.081Z,8.66
2023-11-05T23:40:46.204Z,8.55
2023-11-05T23:43:14.401Z,8.56
2023-11-05T23:45:43.048Z,8.58
2023-11-05T23:48:10.629Z,8.49
2023-11-05T23:50:38.347Z,8.55
2023-11-05T23:53:05.848Z,8.68
2023-11-05T23:55:33.222Z,8.54
2023-11-05T23:58:01.077Z,8.33
